createdAt,value
2018-08-18T00:00:08.815Z,18.69
2018-08-18T00:01:18.936Z,18.69
2018-08-18T00:02:29.176Z,18.73
2018-08-18T00:03:39.443Z,18.71
2018-08-18T00:04:49.351Z,18.73
2018-08-18T00:05:59.499Z,18.72
2018-08-18T00:07:09.693Z,18.69
2018-08-18T00:08:19.845Z,18.62
2018-08-18T00:09:30.090Z,18.62
2018-08-18T00:10:40.266Z,18.63
2018-08-18T00:11:50.509Z,18.72
2018-08-18T00:13:00.713Z,18.59
2018-08-18T00:14:10.951Z,18.63
2018-08-18T00:15:21.111Z,18.59
2018-08-18T00:16:31.264Z,18.62
2018-08-18T00:17:41.043Z,18.65
2018-08-18T00:18:51.276Z,18.6
2018-08-18T00:20:01.678Z,18.63
2018-08-18T00:21:11.810Z,18.65
2018-08-18T00:22:21.941Z,18.63
2018-08-18T00:23:32.075Z,18.56
2018-08-18T00:24:42.216Z,18.6
2018-08-18T00:25:52.360Z,18.65
2018-08-18T00:27:02.253Z,18.62
2018-08-18T00:28:12.386Z,18.59
2018-08-18T00:29:22.550Z,18.57
2018-08-18T00:30:32.673Z,18.55
2018-08-18T00:31:43.020Z,18.55
2018-08-18T00:32:53.165Z,18.56
2018-08-18T00:34:03.513Z,18.6
2018-08-18T00:35:13.446Z,18.56
2018-08-18T00:36:23.699Z,18.53
2018-08-18T00:37:33.864Z,18.59
2018-08-18T00:38:44.021Z,18.57
2018-08-18T00:39:54.225Z,18.57
2018-08-18T00:41:04.147Z,18.59
2018-08-18T00:42:14.021Z,18.53
2018-08-18T00:43:24.180Z,18.5
2018-08-18T00:44:34.303Z,18.34
2018-08-18T00:45:44.441Z,18.38
2018-08-18T00:46:54.428Z,18.4
2018-08-18T00:48:04.382Z,18.46
2018-08-18T00:49:14.573Z,18.44
2018-08-18T00:50:24.861Z,18.44
2018-08-18T00:51:35.045Z,18.3
2018-08-18T00:52:45.283Z,18.32
2018-08-18T00:53:55.158Z,18.32
2018-08-18T00:55:05.348Z,18.4
2018-08-18T00:56:15.158Z,18.31
2018-08-18T00:57:25.078Z,18.37
2018-08-18T00:58:35.234Z,18.46
2018-08-18T00:59:45.360Z,18.37
2018-08-18T01:00:55.497Z,18.38
2018-08-18T01:02:05.658Z,18.47
2018-08-18T01:03:15.865Z,18.35
2018-08-18T01:04:26.014Z,18.34
2018-08-18T01:05:35.790Z,18.4
2018-08-18T01:06:45.674Z,18.4
2018-08-18T01:07:55.916Z,18.23
2018-08-18T01:09:06.054Z,18.38
2018-08-18T01:10:15.917Z,18.35
2018-08-18T01:11:26.489Z,18.23
2018-08-18T01:12:37.668Z,18.26
2018-08-18T01:13:49.043Z,18.26
2018-08-18T01:15:00.079Z,18.23
2018-08-18T01:16:10.124Z,18.2
2018-08-18T01:17:20.305Z,18.26
2018-08-18T01:18:30.484Z,18.23
2018-08-18T01:19:40.655Z,18.17
2018-08-18T01:20:50.377Z,18.15
2018-08-18T01:22:00.026Z,18.19
2018-08-18T01:23:10.223Z,18.19
2018-08-18T01:24:20.391Z,18.15
2018-08-18T01:25:30.607Z,18.1
2018-08-18T01:26:40.779Z,18.13
2018-08-18T01:27:51.100Z,18.01
2018-08-18T01:29:01.286Z,17.98
2018-08-18T01:30:11.444Z,17.97
2018-08-18T01:31:21.364Z,17.97
2018-08-18T01:32:31.521Z,17.91
2018-08-18T01:33:41.662Z,17.89
2018-08-18T01:34:51.840Z,17.76
2018-08-18T01:36:02.003Z,17.75
2018-08-18T01:37:12.136Z,17.73
2018-08-18T01:38:22.278Z,17.61
2018-08-18T01:39:32.433Z,17.64
2018-08-18T01:40:42.590Z,17.62
2018-08-18T01:41:52.719Z,17.62
2018-08-18T01:43:02.909Z,17.58
2018-08-18T01:44:13.175Z,17.58
2018-08-18T01:45:24.336Z,17.64
2018-08-18T01:46:34.646Z,17.62
2018-08-18T01:47:44.832Z,17.61
2018-08-18T01:48:54.750Z,17.67
2018-08-18T01:50:04.881Z,17.64
2018-08-18T01:51:15.011Z,17.75
2018-08-18T01:52:25.151Z,17.7
2018-08-18T01:53:35.109Z,17.61
2018-08-18T01:54:45.229Z,17.61
2018-08-18T01:55:55.014Z,17.68
2018-08-18T01:57:04.963Z,17.7
2018-08-18T01:58:15.092Z,17.75
2018-08-18T01:59:26.248Z,17.61
2018-08-18T02:00:36.583Z,17.77
2018-08-18T02:01:46.699Z,17.75
2018-08-18T02:02:56.602Z,17.75
2018-08-18T02:04:06.733Z,17.76
2018-08-18T02:05:16.867Z,17.68
2018-08-18T02:06:27.017Z,17.76
2018-08-18T02:07:37.148Z,17.77
2018-08-18T02:08:47.308Z,17.73
2018-08-18T02:09:57.126Z,17.77
2018-08-18T02:11:07.012Z,17.73
2018-08-18T02:12:17.141Z,17.7
2018-08-18T02:13:27.306Z,17.72
2018-08-18T02:14:37.178Z,17.73
2018-08-18T02:15:48.277Z,17.72
2018-08-18T02:16:58.449Z,17.68
2018-08-18T02:18:08.688Z,17.73
2018-08-18T02:19:18.879Z,17.77
2018-08-18T02:20:29.049Z,17.72
2018-08-18T02:21:39.285Z,17.73
2018-08-18T02:22:49.555Z,17.64
2018-08-18T02:23:59.084Z,17.75
2018-08-18T02:25:09.200Z,17.73
2018-08-18T02:26:19.348Z,17.77
2018-08-18T02:27:29.501Z,17.75
2018-08-18T02:28:39.649Z,17.75
2018-08-18T02:29:49.869Z,17.68
2018-08-18T02:31:00.020Z,17.6
2018-08-18T02:32:10.166Z,17.61
2018-08-18T02:33:21.258Z,17.72
2018-08-18T02:34:31.425Z,17.61
2018-08-18T02:35:41.302Z,17.62
2018-08-18T02:36:51.447Z,17.64
2018-08-18T02:38:01.596Z,17.61
2018-08-18T02:39:11.722Z,17.61
2018-08-18T02:40:21.850Z,17.61
2018-08-18T02:41:31.747Z,17.57
2018-08-18T02:42:41.932Z,17.58
2018-08-18T02:43:51.800Z,17.6
2018-08-18T02:45:01.944Z,17.58
2018-08-18T02:46:12.090Z,17.62
2018-08-18T02:47:22.226Z,17.58
2018-08-18T02:48:32.548Z,17.57
2018-08-18T02:49:42.692Z,17.62
2018-08-18T02:50:52.861Z,17.6
2018-08-18T02:52:03.120Z,17.5
2018-08-18T02:53:13.335Z,17.57
2018-08-18T02:54:23.214Z,17.58
2018-08-18T02:55:33.082Z,17.6
2018-08-18T02:56:43.199Z,17.6
2018-08-18T02:57:53.365Z,17.61
2018-08-18T02:59:03.517Z,17.55
2018-08-18T03:00:13.690Z,17.52
2018-08-18T03:01:23.908Z,17.54
2018-08-18T03:02:34.191Z,17.47
2018-08-18T03:03:44.334Z,17.49
2018-08-18T03:04:54.517Z,17.43
2018-08-18T03:06:04.718Z,17.46
2018-08-18T03:07:14.864Z,17.46
2018-08-18T03:08:24.720Z,17.39
2018-08-18T03:09:35.118Z,17.4
2018-08-18T03:10:45.252Z,17.35
2018-08-18T03:11:55.372Z,17.38
2018-08-18T03:13:05.635Z,17.38
2018-08-18T03:14:15.868Z,17.42
2018-08-18T03:15:26.021Z,17.43
2018-08-18T03:16:35.918Z,17.39
2018-08-18T03:17:46.053Z,17.28
2018-08-18T03:18:55.931Z,17.35
2018-08-18T03:20:05.718Z,17.31
2018-08-18T03:21:15.846Z,17.27
2018-08-18T03:22:25.971Z,17.24
2018-08-18T03:23:36.111Z,17.31
2018-08-18T03:24:46.230Z,17.27
2018-08-18T03:25:56.360Z,17.23
2018-08-18T03:27:06.298Z,17.31
2018-08-18T03:28:16.432Z,17.28
2018-08-18T03:29:26.584Z,17.31
2018-08-18T03:30:36.709Z,17.3
2018-08-18T03:31:46.908Z,17.28
2018-08-18T03:32:56.783Z,17.28
2018-08-18T03:34:06.663Z,17.24
2018-08-18T03:35:16.828Z,17.27
2018-08-18T03:36:27.087Z,17.21
2018-08-18T03:37:37.346Z,17.27
2018-08-18T03:38:47.567Z,17.31
2018-08-18T03:39:57.797Z,17.3
2018-08-18T03:41:07.968Z,17.27
2018-08-18T03:42:18.254Z,17.31
2018-08-18T03:43:28.395Z,17.31
2018-08-18T03:44:38.297Z,17.36
2018-08-18T03:45:48.250Z,17.36
2018-08-18T03:46:58.379Z,17.3
2018-08-18T03:48:08.503Z,17.27
2018-08-18T03:49:18.364Z,17.3
2018-08-18T03:50:27.980Z,17.3
2018-08-18T03:51:38.101Z,17.3
2018-08-18T03:52:48.001Z,17.28
2018-08-18T03:53:57.797Z,17.31
2018-08-18T03:55:07.696Z,17.3
2018-08-18T03:56:17.936Z,17.27
2018-08-18T03:57:28.095Z,17.27
2018-08-18T03:58:38.229Z,17.23
2018-08-18T03:59:48.361Z,17.23
2018-08-18T04:00:58.509Z,17.24
2018-08-18T04:02:09.281Z,17.31
2018-08-18T04:03:19.519Z,17.24
2018-08-18T04:04:29.678Z,17.36
2018-08-18T04:05:39.816Z,17.31
2018-08-18T04:06:50.105Z,17.23
2018-08-18T04:07:59.870Z,17.28
2018-08-18T04:09:10.082Z,17.2
2018-08-18T04:10:20.283Z,17.23
2018-08-18T04:11:30.547Z,17.32
2018-08-18T04:12:40.747Z,17.3
2018-08-18T04:13:50.908Z,17.24
2018-08-18T04:15:01.052Z,17.24
2018-08-18T04:16:11.318Z,17.27
2018-08-18T04:17:21.216Z,17.31
2018-08-18T04:18:31.339Z,17.31
2018-08-18T04:19:41.478Z,17.21
2018-08-18T04:20:51.688Z,17.28
2018-08-18T04:22:01.947Z,17.32
2018-08-18T04:23:12.170Z,17.28
2018-08-18T04:24:21.945Z,17.24
2018-08-18T04:25:31.846Z,17.23
2018-08-18T04:26:41.768Z,17.21
2018-08-18T04:27:52.040Z,17.17
2018-08-18T04:29:01.538Z,17.2
2018-08-18T04:30:11.693Z,17.19
2018-08-18T04:31:21.824Z,17.2
2018-08-18T04:32:31.957Z,17.17
2018-08-18T04:33:41.927Z,17.2
2018-08-18T04:34:52.116Z,17.2
2018-08-18T04:36:02.252Z,17.2
2018-08-18T04:37:12.389Z,17.21
2018-08-18T04:38:22.659Z,17.14
2018-08-18T04:39:32.528Z,17.19
2018-08-18T04:40:42.789Z,17.19
2018-08-18T04:41:52.937Z,17.27
2018-08-18T04:43:03.072Z,17.16
2018-08-18T04:44:13.260Z,17.2
2018-08-18T04:45:23.427Z,17.21
2018-08-18T04:46:33.338Z,17.19
2018-08-18T04:47:43.564Z,17.24
2018-08-18T04:48:53.709Z,17.23
2018-08-18T04:50:04.544Z,17.3
2018-08-18T04:51:14.694Z,17.31
2018-08-18T04:52:24.842Z,17.28
2018-08-18T04:53:34.957Z,17.36
2018-08-18T04:54:45.224Z,17.36
2018-08-18T04:55:55.364Z,17.47
2018-08-18T04:57:05.870Z,17.49
2018-08-18T04:58:15.391Z,17.43
2018-08-18T04:59:25.380Z,17.46
2018-08-18T05:00:35.331Z,17.39
2018-08-18T05:01:45.526Z,17.43
2018-08-18T05:02:55.576Z,17.47
2018-08-18T05:04:05.701Z,17.49
2018-08-18T05:05:16.250Z,17.46
2018-08-18T05:06:26.500Z,17.39
2018-08-18T05:07:36.720Z,17.47
2018-08-18T05:08:46.979Z,17.36
2018-08-18T05:09:57.333Z,17.43
2018-08-18T05:11:07.160Z,17.42
2018-08-18T05:12:17.294Z,17.46
2018-08-18T05:13:27.446Z,17.46
2018-08-18T05:14:37.083Z,17.5
2018-08-18T05:15:47.247Z,17.6
2018-08-18T05:16:57.286Z,17.61
2018-08-18T05:18:07.642Z,17.6
2018-08-18T05:19:18.139Z,17.65
2018-08-18T05:20:28.461Z,17.61
2018-08-18T05:21:38.628Z,17.57
2018-08-18T05:22:48.757Z,17.61
2018-08-18T05:23:58.892Z,17.6
2018-08-18T05:25:09.046Z,17.67
2018-08-18T05:26:19.217Z,17.65
2018-08-18T05:27:29.482Z,17.65
2018-08-18T05:28:39.368Z,17.58
2018-08-18T05:29:49.517Z,17.73
2018-08-18T05:30:59.664Z,17.62
2018-08-18T05:32:09.820Z,17.76
2018-08-18T05:33:19.960Z,17.73
2018-08-18T05:34:30.142Z,17.73
2018-08-18T05:35:40.176Z,17.73
2018-08-18T05:36:50.311Z,17.75
2018-08-18T05:38:00.216Z,17.76
2018-08-18T05:39:10.341Z,17.73
2018-08-18T05:40:20.539Z,17.85
2018-08-18T05:41:30.787Z,17.82
2018-08-18T05:42:41.015Z,17.83
2018-08-18T05:43:51.178Z,17.89
2018-08-18T05:45:00.957Z,17.83
2018-08-18T05:46:11.099Z,17.83
2018-08-18T05:47:22.304Z,17.87
2018-08-18T05:48:32.501Z,17.94
2018-08-18T05:49:42.699Z,17.91
2018-08-18T05:50:52.882Z,17.89
2018-08-18T05:52:03.064Z,17.91
2018-08-18T05:53:13.225Z,17.98
2018-08-18T05:54:23.335Z,17.86
2018-08-18T05:55:33.490Z,17.91
2018-08-18T05:56:43.810Z,18.02
2018-08-18T05:57:54.924Z,18
2018-08-18T05:59:05.058Z,18.04
2018-08-18T06:00:15.224Z,18.16
2018-08-18T06:01:25.501Z,18.19
2018-08-18T06:02:35.727Z,18.1
2018-08-18T06:03:45.493Z,18.22
2018-08-18T06:04:55.326Z,18.26
2018-08-18T06:06:05.513Z,18.35
2018-08-18T06:07:16.864Z,18.38
2018-08-18T06:08:27.012Z,18.31
2018-08-18T06:09:37.180Z,18.42
2018-08-18T06:10:47.486Z,18.44
2018-08-18T06:11:57.779Z,18.53
2018-08-18T06:13:07.762Z,18.56
2018-08-18T06:14:17.602Z,18.59
2018-08-18T06:15:27.746Z,18.57
2018-08-18T06:16:37.883Z,18.57
2018-08-18T06:17:48.065Z,18.69
2018-08-18T06:18:58.223Z,18.72
2018-08-18T06:20:08.489Z,18.73
2018-08-18T06:21:18.632Z,18.8
2018-08-18T06:22:28.799Z,18.72
2018-08-18T06:23:38.955Z,18.72
2018-08-18T06:24:49.090Z,18.65
2018-08-18T06:25:59.432Z,18.65
2018-08-18T06:27:09.568Z,18.55
2018-08-18T06:28:19.714Z,18.59
2018-08-18T06:29:29.897Z,18.5
2018-08-18T06:30:39.770Z,18.47
2018-08-18T06:31:49.912Z,18.4
2018-08-18T06:33:00.048Z,18.4
2018-08-18T06:34:10.208Z,18.41
2018-08-18T06:35:20.453Z,18.44
2018-08-18T06:36:30.598Z,18.42
2018-08-18T06:37:40.748Z,18.49
2018-08-18T06:38:50.701Z,18.52
2018-08-18T06:40:00.936Z,18.4
2018-08-18T06:41:11.454Z,18.42
2018-08-18T06:42:22.021Z,18.52
2018-08-18T06:43:32.346Z,18.47
2018-08-18T06:44:42.557Z,18.62
2018-08-18T06:45:52.425Z,18.6
2018-08-18T06:47:02.683Z,18.71
2018-08-18T06:48:12.836Z,18.73
2018-08-18T06:49:22.723Z,18.84
2018-08-18T06:50:33.911Z,18.86
2018-08-18T06:51:44.078Z,18.84
2018-08-18T06:52:54.296Z,18.91
2018-08-18T06:54:04.458Z,18.93
2018-08-18T06:55:15.484Z,18.97
2018-08-18T06:56:26.118Z,18.95
2018-08-18T06:57:36.249Z,18.98
2018-08-18T06:58:46.461Z,19.08
2018-08-18T06:59:56.651Z,19.09
2018-08-18T07:01:06.806Z,19.05
2018-08-18T07:02:17.046Z,19.1
2018-08-18T07:03:26.973Z,19.12
2018-08-18T07:04:37.148Z,19.15
2018-08-18T07:05:47.414Z,19.15
2018-08-18T07:06:57.327Z,19.1
2018-08-18T07:08:08.685Z,19.13
2018-08-18T07:09:18.852Z,19.23
2018-08-18T07:10:29.035Z,19.18
2018-08-18T07:11:39.178Z,19.23
2018-08-18T07:12:49.129Z,19.25
2018-08-18T07:13:58.938Z,19.24
2018-08-18T07:15:09.094Z,19.28
2018-08-18T07:16:19.263Z,19.3
2018-08-18T07:17:29.430Z,19.3
2018-08-18T07:18:39.353Z,19.27
2018-08-18T07:19:49.501Z,19.33
2018-08-18T07:20:59.406Z,19.3
2018-08-18T07:22:09.581Z,19.19
2018-08-18T07:23:19.722Z,19.21
2018-08-18T07:24:29.894Z,19.15
2018-08-18T07:25:40.037Z,19.09
2018-08-18T07:26:50.220Z,19.23
2018-08-18T07:28:00.336Z,19.16
2018-08-18T07:29:11.299Z,19.19
2018-08-18T07:30:21.635Z,19.19
2018-08-18T07:31:31.811Z,19.16
2018-08-18T07:32:41.983Z,19.27
2018-08-18T07:33:51.765Z,19.27
2018-08-18T07:35:01.895Z,19.31
2018-08-18T07:36:12.051Z,19.27
2018-08-18T07:37:22.521Z,19.35
2018-08-18T07:38:33.078Z,19.33
2018-08-18T07:39:43.314Z,19.35
2018-08-18T07:40:53.488Z,19.46
2018-08-18T07:42:03.708Z,19.53
2018-08-18T07:43:13.972Z,19.52
2018-08-18T07:44:24.136Z,19.49
2018-08-18T07:45:33.901Z,19.6
2018-08-18T07:46:44.086Z,19.63
2018-08-18T07:47:54.371Z,19.64
2018-08-18T07:49:04.768Z,19.61
2018-08-18T07:50:14.923Z,19.64
2018-08-18T07:51:25.061Z,19.79
2018-08-18T07:52:35.257Z,19.83
2018-08-18T07:53:45.456Z,19.9
2018-08-18T07:54:55.598Z,19.92
2018-08-18T07:56:05.735Z,19.95
2018-08-18T07:57:15.986Z,20.12
2018-08-18T07:58:26.305Z,20.21
2018-08-18T07:59:36.593Z,20.21
2018-08-18T08:00:46.844Z,20.28
2018-08-18T08:01:57.016Z,20.36
2018-08-18T08:03:07.220Z,20.41
2018-08-18T08:04:17.360Z,20.53
2018-08-18T08:05:27.275Z,20.51
2018-08-18T08:06:37.492Z,20.63
2018-08-18T08:07:47.678Z,20.66
2018-08-18T08:08:57.772Z,20.83
2018-08-18T08:10:07.952Z,20.82
2018-08-18T08:11:18.187Z,20.96
2018-08-18T08:12:28.538Z,20.96
2018-08-18T08:13:39.079Z,21
2018-08-18T08:14:48.607Z,21
2018-08-18T08:15:58.757Z,21.1
2018-08-18T08:17:08.746Z,21.18
2018-08-18T08:18:19.292Z,21.16
2018-08-18T08:19:29.752Z,21.18
2018-08-18T08:20:39.919Z,21.2
2018-08-18T08:21:50.286Z,21.16
2018-08-18T08:23:00.429Z,21.25
2018-08-18T08:24:10.301Z,21.19
2018-08-18T08:25:20.461Z,21.35
2018-08-18T08:26:30.360Z,21.33
2018-08-18T08:27:40.496Z,21.35
2018-08-18T08:28:51.100Z,21.34
2018-08-18T08:30:01.237Z,21.28
2018-08-18T08:31:11.372Z,21.56
2018-08-18T08:32:21.576Z,21.69
2018-08-18T08:33:31.852Z,21.75
2018-08-18T08:34:41.747Z,21.91
2018-08-18T08:35:51.936Z,22.01
2018-08-18T08:37:02.109Z,21.9
2018-08-18T08:38:12.274Z,22.01
2018-08-18T08:39:22.593Z,22.03
2018-08-18T08:40:32.758Z,22.12
2018-08-18T08:41:42.998Z,22.15
2018-08-18T08:42:53.314Z,22.2
2018-08-18T08:44:03.597Z,22.33
2018-08-18T08:45:13.953Z,22.27
2018-08-18T08:46:24.180Z,22.33
2018-08-18T08:47:34.399Z,22.53
2018-08-18T08:48:44.570Z,22.82
2018-08-18T08:49:54.702Z,22.79
2018-08-18T08:51:04.876Z,22.76
2018-08-18T08:52:15.079Z,22.68
2018-08-18T08:53:25.247Z,22.64
2018-08-18T08:54:35.458Z,22.45
2018-08-18T08:55:45.704Z,22.31
2018-08-18T08:56:55.903Z,22.26
2018-08-18T08:58:06.841Z,22.23
2018-08-18T08:59:17.012Z,22.03
2018-08-18T09:00:27.205Z,21.98
2018-08-18T09:01:37.343Z,21.94
2018-08-18T09:02:47.476Z,21.97
2018-08-18T09:03:57.617Z,21.93
2018-08-18T09:05:07.822Z,21.94
2018-08-18T09:06:18.030Z,22.02
2018-08-18T09:07:27.739Z,22.01
2018-08-18T09:08:37.923Z,22.01
2018-08-18T09:09:48.057Z,22.02
2018-08-18T09:10:58.199Z,21.96
2018-08-18T09:12:08.421Z,21.88
2018-08-18T09:13:18.584Z,21.84
2018-08-18T09:14:28.827Z,21.73
2018-08-18T09:15:39.032Z,21.88
2018-08-18T09:16:49.267Z,21.86
2018-08-18T09:17:59.434Z,21.87
2018-08-18T09:19:09.554Z,21.96
2018-08-18T09:20:19.775Z,21.93
2018-08-18T09:21:30.031Z,22.01
2018-08-18T09:22:40.194Z,22.05
2018-08-18T09:23:50.517Z,22.2
2018-08-18T09:25:00.699Z,22.2
2018-08-18T09:26:10.944Z,22.21
2018-08-18T09:27:21.303Z,22.24
2018-08-18T09:28:31.474Z,22.33
2018-08-18T09:29:41.246Z,22.38
2018-08-18T09:30:51.649Z,22.38
2018-08-18T09:32:01.838Z,22.31
2018-08-18T09:33:11.980Z,22.3
2018-08-18T09:34:22.124Z,22.42
2018-08-18T09:35:32.318Z,22.4
2018-08-18T09:36:42.477Z,22.53
2018-08-18T09:37:52.660Z,22.67
2018-08-18T09:39:02.819Z,22.7
2018-08-18T09:40:12.995Z,22.8
2018-08-18T09:41:23.157Z,22.9
2018-08-18T09:42:33.475Z,22.96
2018-08-18T09:43:43.629Z,23.01
2018-08-18T09:44:53.788Z,23.02
2018-08-18T09:46:04.011Z,23.14
2018-08-18T09:47:14.448Z,23.16
2018-08-18T09:48:24.687Z,23.21
2018-08-18T09:49:35.855Z,23.23
2018-08-18T09:50:46.219Z,23.43
2018-08-18T09:51:56.502Z,23.72
2018-08-18T09:53:06.939Z,24.24
2018-08-18T09:54:17.221Z,24.82
2018-08-18T09:55:27.859Z,25.54
2018-08-18T09:56:37.783Z,26.29
2018-08-18T09:57:47.927Z,27.01
2018-08-18T09:58:58.234Z,27.72
2018-08-18T10:00:08.512Z,28.09
2018-08-18T10:01:18.459Z,28.54
2018-08-18T10:02:29.653Z,28.95
2018-08-18T10:03:43.246Z,29.43
2018-08-18T10:04:54.104Z,29.81
2018-08-18T10:06:04.272Z,29.91
2018-08-18T10:07:14.566Z,29.77
2018-08-18T10:08:24.948Z,29.89
2018-08-18T10:09:34.602Z,29.91
2018-08-18T10:10:44.865Z,29.75
2018-08-18T10:11:55.143Z,29.91
2018-08-18T10:13:05.317Z,29.7
2018-08-18T10:14:15.498Z,29.54
2018-08-18T10:15:26.034Z,29.23
2018-08-18T10:16:37.478Z,28.81
2018-08-18T10:17:47.700Z,28.69
2018-08-18T10:18:59.170Z,28.69
2018-08-18T10:20:10.555Z,28.5
2018-08-18T10:21:20.747Z,28.44
2018-08-18T10:22:31.989Z,28.42
2018-08-18T10:23:42.239Z,28.42
2018-08-18T10:24:52.445Z,28.6
2018-08-18T10:26:04.130Z,28.49
2018-08-18T10:27:14.488Z,28.6
2018-08-18T10:28:24.593Z,28.67
2018-08-18T10:29:34.780Z,28.99
2018-08-18T10:30:44.964Z,29.09
2018-08-18T10:31:55.172Z,29.28
2018-08-18T10:33:05.378Z,29.33
2018-08-18T10:34:16.349Z,29.45
2018-08-18T10:35:29.154Z,29.55
2018-08-18T10:36:39.411Z,29.67
2018-08-18T10:37:50.734Z,29.89
2018-08-18T10:39:00.741Z,29.97
2018-08-18T10:40:10.970Z,30.08
2018-08-18T10:41:21.252Z,30.29
2018-08-18T10:42:31.535Z,30.54
2018-08-18T10:46:12.489Z,30.7
2018-08-18T10:47:23.643Z,30.82
2018-08-18T10:49:49.391Z,30.96
2018-08-18T10:50:59.298Z,30.96
2018-08-18T10:52:09.800Z,31.09
2018-08-18T10:53:20.131Z,31.09
2018-08-18T10:54:30.399Z,30.97
2018-08-18T10:55:40.601Z,30.97
2018-08-18T10:56:50.807Z,31.07
2018-08-18T10:58:00.972Z,31.25
2018-08-18T10:59:11.785Z,31.27
2018-08-18T11:00:21.944Z,31.15
2018-08-18T11:01:32.352Z,31.18
2018-08-18T11:02:42.530Z,31.2
2018-08-18T11:03:52.520Z,31.18
2018-08-18T11:05:02.890Z,31.13
2018-08-18T11:06:13.061Z,31.01
2018-08-18T11:07:23.002Z,30.88
2018-08-18T11:08:33.393Z,30.93
2018-08-18T11:09:43.582Z,30.85
2018-08-18T11:10:53.748Z,30.96
2018-08-18T11:12:03.944Z,31.13
2018-08-18T11:13:14.102Z,31.2
2018-08-18T11:14:24.507Z,31.22
2018-08-18T11:15:34.708Z,31.09
2018-08-18T11:16:44.991Z,31.07
2018-08-18T11:17:54.958Z,31.15
2018-08-18T11:19:05.125Z,31.28
2018-08-18T11:20:15.111Z,31.25
2018-08-18T11:21:25.409Z,31.19
2018-08-18T11:22:35.934Z,31.31
2018-08-18T11:23:46.505Z,31.34
2018-08-18T11:24:57.305Z,31.35
2018-08-18T11:28:38.464Z,31.12
2018-08-18T11:29:50.049Z,31.22
2018-08-18T11:31:03.999Z,31.16
2018-08-18T11:32:15.307Z,31.2
2018-08-18T11:33:26.622Z,31.19
2018-08-18T11:35:50.671Z,30.74
2018-08-18T11:37:00.925Z,30.53
2018-08-18T11:38:11.115Z,30.25
2018-08-18T11:39:23.698Z,30.08
2018-08-18T11:40:33.952Z,29.91
2018-08-18T11:41:44.169Z,29.76
2018-08-18T11:42:54.073Z,29.87
2018-08-18T11:44:06.246Z,29.7
2018-08-18T11:45:16.128Z,29.58
2018-08-18T11:46:27.337Z,29.73
2018-08-18T11:47:37.653Z,30
2018-08-18T11:48:47.831Z,30.04
2018-08-18T11:49:58.131Z,30.2
2018-08-18T11:51:07.768Z,30.44
2018-08-18T11:52:17.665Z,30.61
2018-08-18T11:53:27.825Z,30.57
2018-08-18T11:54:38.034Z,30.53
2018-08-18T11:55:48.203Z,30.41
2018-08-18T11:56:58.439Z,30.51
2018-08-18T11:58:08.348Z,30.56
2018-08-18T11:59:18.547Z,30.7
2018-08-18T12:00:28.380Z,30.75
2018-08-18T12:01:38.561Z,30.74
2018-08-18T12:02:48.720Z,30.78
2018-08-18T12:03:58.909Z,30.81
2018-08-18T12:05:09.099Z,30.86
2018-08-18T12:06:19.291Z,30.97
2018-08-18T12:07:29.533Z,30.98
2018-08-18T12:08:39.708Z,31.01
2018-08-18T12:09:49.608Z,30.98
2018-08-18T12:11:00.427Z,30.96
2018-08-18T12:12:11.084Z,31.04
2018-08-18T12:13:21.300Z,31.22
2018-08-18T12:14:31.280Z,31.35
2018-08-18T12:15:41.432Z,31.46
2018-08-18T12:16:51.632Z,31.38
2018-08-18T12:18:01.853Z,31.5
2018-08-18T12:19:12.006Z,31.44
2018-08-18T12:20:22.204Z,31.54
2018-08-18T12:21:32.792Z,31.54
2018-08-18T12:22:43.325Z,31.53
2018-08-18T12:23:53.585Z,31.35
2018-08-18T12:25:03.779Z,31.27
2018-08-18T12:26:14.026Z,31.23
2018-08-18T12:27:24.300Z,31.12
2018-08-18T12:28:34.205Z,31.01
2018-08-18T12:29:44.736Z,30.83
2018-08-18T12:30:55.491Z,30.54
2018-08-18T12:32:05.666Z,30.33
2018-08-18T12:33:15.850Z,30.33
2018-08-18T12:34:26.014Z,30.14
2018-08-18T12:35:36.247Z,30
2018-08-18T12:36:46.689Z,29.8
2018-08-18T12:37:57.047Z,29.72
2018-08-18T12:39:07.286Z,29.55
2018-08-18T12:40:17.495Z,29.51
2018-08-18T12:41:27.689Z,29.4
2018-08-18T12:42:38.103Z,29.43
2018-08-18T12:43:48.020Z,29.31
2018-08-18T12:44:57.559Z,29.17
2018-08-18T12:46:07.706Z,29.31
2018-08-18T12:47:17.936Z,29.36
2018-08-18T12:48:28.203Z,29.31
2018-08-18T12:49:38.356Z,29.31
2018-08-18T12:50:48.780Z,29.06
2018-08-18T12:51:59.020Z,28.7
2018-08-18T12:53:09.171Z,28.53
2018-08-18T12:54:19.342Z,28.22
2018-08-18T12:55:29.533Z,28.22
2018-08-18T12:56:39.706Z,28.13
2018-08-18T12:57:50.134Z,27.86
2018-08-18T12:59:00.295Z,27.92
2018-08-18T13:00:10.615Z,27.77
2018-08-18T13:01:22.603Z,27.58
2018-08-18T13:02:35.146Z,27.5
2018-08-18T13:03:46.877Z,27.52
2018-08-18T13:04:58.325Z,27.52
2018-08-18T13:06:09.498Z,27.5
2018-08-18T13:07:19.666Z,27.63
2018-08-18T13:08:29.839Z,27.58
2018-08-18T13:09:40.011Z,27.63
2018-08-18T13:10:50.351Z,27.55
2018-08-18T13:12:00.525Z,27.65
2018-08-18T13:13:10.716Z,27.64
2018-08-18T13:14:21.085Z,27.63
2018-08-18T13:15:31.564Z,27.74
2018-08-18T13:16:41.756Z,27.67
2018-08-18T13:17:52.072Z,27.67
2018-08-18T13:19:02.253Z,27.77
2018-08-18T13:20:12.411Z,27.72
2018-08-18T13:21:22.608Z,27.67
2018-08-18T13:22:32.797Z,27.6
2018-08-18T13:23:42.361Z,27.55
2018-08-18T13:24:52.568Z,27.63
2018-08-18T13:26:02.736Z,27.52
2018-08-18T13:27:12.920Z,27.55
2018-08-18T13:28:23.072Z,27.49
2018-08-18T13:29:33.276Z,27.41
2018-08-18T13:30:43.457Z,27.3
2018-08-18T13:31:53.422Z,27.26
2018-08-18T13:33:03.386Z,27.1
2018-08-18T13:34:13.691Z,27.14
2018-08-18T13:35:23.889Z,27.04
2018-08-18T13:36:34.114Z,26.96
2018-08-18T13:37:44.403Z,26.82
2018-08-18T13:38:54.587Z,26.86
2018-08-18T13:40:04.792Z,26.83
2018-08-18T13:41:15.017Z,26.67
2018-08-18T13:42:25.186Z,26.67
2018-08-18T13:43:34.840Z,26.56
2018-08-18T13:44:45.345Z,26.68
2018-08-18T13:45:55.252Z,26.78
2018-08-18T13:47:05.428Z,26.86
2018-08-18T13:48:15.812Z,26.83
2018-08-18T13:49:25.719Z,26.8
2018-08-18T13:50:35.923Z,26.7
2018-08-18T13:51:46.074Z,26.55
2018-08-18T13:52:56.334Z,26.43
2018-08-18T13:54:07.237Z,26.34
2018-08-18T13:55:18.029Z,26.31
2018-08-18T13:56:28.200Z,26.33
2018-08-18T13:57:38.368Z,26.33
2018-08-18T13:58:48.380Z,26.31
2018-08-18T13:59:58.892Z,26.3
2018-08-18T14:01:09.145Z,26.3
2018-08-18T14:02:19.614Z,26.21
2018-08-18T14:03:29.822Z,26.25
2018-08-18T14:04:40.030Z,26.22
2018-08-18T14:05:50.691Z,26.24
2018-08-18T14:07:00.895Z,26.14
2018-08-18T14:08:11.484Z,26.15
2018-08-18T14:09:21.700Z,26.18
2018-08-18T14:10:31.971Z,26.3
2018-08-18T14:11:41.895Z,26.3
2018-08-18T14:12:52.083Z,26.29
2018-08-18T14:14:02.234Z,26.31
2018-08-18T14:15:12.494Z,26.29
2018-08-18T14:16:22.710Z,26.43
2018-08-18T14:17:33.320Z,26.45
2018-08-18T14:18:44.540Z,26.43
2018-08-18T14:19:54.337Z,26.45
2018-08-18T14:21:04.636Z,26.43
2018-08-18T14:22:14.811Z,26.48
2018-08-18T14:23:25.002Z,26.46
2018-08-18T14:24:35.231Z,26.43
2018-08-18T14:25:45.421Z,26.49
2018-08-18T14:26:55.319Z,26.41
2018-08-18T14:28:05.474Z,26.52
2018-08-18T14:29:15.661Z,26.51
2018-08-18T14:30:26.850Z,26.55
2018-08-18T14:31:37.084Z,26.56
2018-08-18T14:32:47.001Z,26.52
2018-08-18T14:33:57.464Z,26.55
2018-08-18T14:35:08.107Z,26.48
2018-08-18T14:36:18.507Z,26.53
2018-08-18T14:37:28.743Z,26.41
2018-08-18T14:38:38.910Z,26.45
2018-08-18T14:39:48.834Z,26.43
2018-08-18T14:40:59.166Z,26.48
2018-08-18T14:42:09.705Z,26.49
2018-08-18T14:43:19.879Z,26.51
2018-08-18T14:44:30.081Z,26.55
2018-08-18T14:45:40.390Z,26.61
2018-08-18T14:46:51.018Z,26.64
2018-08-18T14:48:01.634Z,26.51
2018-08-18T14:49:11.813Z,26.39
2018-08-18T14:50:22.058Z,26.37
2018-08-18T14:51:32.266Z,26.37
2018-08-18T14:52:42.178Z,26.31
2018-08-18T14:53:52.335Z,26.33
2018-08-18T14:55:02.569Z,26.34
2018-08-18T14:56:12.820Z,26.29
2018-08-18T14:57:22.990Z,26.37
2018-08-18T14:58:33.002Z,26.45
2018-08-18T14:59:43.095Z,26.46
2018-08-18T15:00:53.259Z,26.46
2018-08-18T15:02:03.721Z,26.48
2018-08-18T15:03:13.926Z,26.46
2018-08-18T15:04:24.380Z,26.52
2018-08-18T15:05:34.994Z,26.51
2018-08-18T15:06:45.180Z,26.52
2018-08-18T15:07:55.440Z,26.51
2018-08-18T15:09:05.666Z,26.64
2018-08-18T15:10:15.854Z,26.64
2018-08-18T15:11:26.217Z,26.64
2018-08-18T15:12:36.410Z,26.59
2018-08-18T15:13:46.326Z,26.68
2018-08-18T15:14:56.747Z,26.62
2018-08-18T15:16:06.999Z,26.48